sensor_id;sensor_type;location;lat;lon;timestamp;pressure;altitude;pressure_sealevel;temperature;humidity
41254;BME280;26987;59.928;30.306;2023-09-12T00:00:51;101333.81;;;14.94;100.00
41254;BME280;26987;59.928;30.306;2023-09-12T00:03:21;101333.28;;;14.85;100.00
41254;BME280;26987;59.928;30.306;2023-09-12T00:05:52;101338.22;;;14.88;100.00
41254;BME280;26987;59.928;30.306;2023-09-12T00:08:20;101333.34;;;14.79;100.00
41254;BME280;26987;59.928;30.306;2023-09-12T00:11:00;101321.06;;;14.76;100.00
41254;BME280;26987;59.928;30.306;2023-09-12T00:13:28;101325.66;;;14.75;100.00
41254;BME280;26987;59.928;30.306;2023-09-12T00:15:57;101266.28;;;14.24;100.00
41254;BME280;26987;59.928;30.306;2023-09-12T00:18:25;101307.13;;;14.54;100.00
41254;BME280;26987;59.928;30.306;2023-09-12T00:20:53;101329.50;;;14.61;100.00
41254;BME280;26987;59.928;30.306;2023-09-12T00:23:21;101336.56;;;14.62;100.00
41254;BME280;26987;59.928;30.306;2023-09-12T00:25:50;101322.72;;;14.52;100.00
41254;BME280;26987;59.928;30.306;2023-09-12T00:28:20;101332.03;;;14.56;100.00
41254;BME280;26987;59.928;30.306;2023-09-12T00:30:48;101336.22;;;14.52;100.00
41254;BME280;26987;59.928;30.306;2023-09-12T00:33:16;101337.47;;;14.49;100.00
41254;BME280;26987;59.928;30.306;2023-09-12T00:35:44;101329.44;;;14.42;100.00
41254;BME280;26987;59.928;30.306;2023-09-12T00:38:12;101330.72;;;14.40;100.00
41254;BME280;26987;59.928;30.306;2023-09-12T00:40:40;101330.91;;;14.38;100.00
41254;BME280;26987;59.928;30.306;2023-09-12T00:43:07;101343.78;;;14.36;100.00
41254;BME280;26987;59.928;30.306;2023-09-12T00:45:37;101332.59;;;14.32;100.00
41254;BME280;26987;59.928;30.306;2023-09-12T00:48:06;101334.28;;;14.27;100.00
41254;BME280;26987;59.928;30.306;2023-09-12T00:50:35;101337.00;;;14.27;100.00
41254;BME280;26987;59.928;30.306;2023-09-12T00:53:04;101331.81;;;14.25;100.00
41254;BME280;26987;59.928;30.306;2023-09-12T00:55:33;101337.84;;;14.20;100.00
41254;BME280;26987;59.928;30.306;2023-09-12T00:58:02;101340.97;;;14.17;100.00
41254;BME280;26987;59.928;30.306;2023-09-12T01:00:30;101341.44;;;14.14;100.00
41254;BME280;26987;59.928;30.306;2023-09-12T01:02:59;101343.53;;;14.12;100.00
41254;BME280;26987;59.928;30.306;2023-09-12T01:05:28;101326.97;;;14.02;100.00
41254;BME280;26987;59.928;30.306;2023-09-12T01:07:56;101341.25;;;14.09;100.00
41254;BME280;26987;59.928;30.306;2023-09-12T01:10:24;101339.81;;;14.06;100.00
41254;BME280;26987;59.928;30.306;2023-09-12T01:12:52;101340.84;;;14.05;100.00
41254;BME280;26987;59.928;30.306;2023-09-12T01:15:20;101343.75;;;14.04;100.00
41254;BME280;26987;59.928;30.306;2023-09-12T01:17:48;101348.56;;;14.02;100.00
41254;BME280;26987;59.928;30.306;2023-09-12T01:20:22;101345.22;;;13.99;100.00
41254;BME280;26987;59.928;30.306;2023-09-12T01:23:11;101341.06;;;14.04;100.00
41254;BME280;26987;59.928;30.306;2023-09-12T01:26:09;101346.22;;;14.05;100.00
41254;BME280;26987;59.928;30.306;2023-09-12T01:28:42;101340.88;;;13.98;100.00
41254;BME280;26987;59.928;30.306;2023-09-12T01:31:12;101344.00;;;13.95;100.00
41254;BME280;26987;59.928;30.306;2023-09-12T01:33:40;101325.84;;;13.84;100.00
41254;BME280;26987;59.928;30.306;2023-09-12T01:36:10;101336.19;;;13.87;100.00
41254;BME280;26987;59.928;30.306;2023-09-12T01:38:38;101339.25;;;13.91;100.00
41254;BME280;26987;59.928;30.306;2023-09-12T01:41:07;101343.22;;;13.88;100.00
41254;BME280;26987;59.928;30.306;2023-09-12T01:43:36;101342.59;;;13.86;100.00
41254;BME280;26987;59.928;30.306;2023-09-12T01:46:07;101337.63;;;13.83;100.00
41254;BME280;26987;59.928;30.306;2023-09-12T01:48:36;101338.69;;;13.82;100.00
41254;BME280;26987;59.928;30.306;2023-09-12T01:51:05;101339.72;;;13.81;100.00
41254;BME280;26987;59.928;30.306;2023-09-12T01:53:35;101319.66;;;13.63;100.00
41254;BME280;26987;59.928;30.306;2023-09-12T01:56:03;101330.88;;;13.67;100.00
41254;BME280;26987;59.928;30.306;2023-09-12T01:58:32;101327.13;;;13.68;100.00
41254;BME280;26987;59.928;30.306;2023-09-12T02:01:00;101336.03;;;13.68;100.00
41254;BME280;26987;59.928;30.306;2023-09-12T02:03:29;101336.03;;;13.68;100.00
41254;BME280;26987;59.928;30.306;2023-09-12T02:05:57;101329.44;;;13.64;100.00
41254;BME280;26987;59.928;30.306;2023-09-12T02:08:25;101332.13;;;13.64;100.00
41254;BME280;26987;59.928;30.306;2023-09-12T02:10:53;101330.91;;;13.60;100.00
41254;BME280;26987;59.928;30.306;2023-09-12T02:13:21;101320.56;;;13.57;100.00
41254;BME280;26987;59.928;30.306;2023-09-12T02:15:49;101335.47;;;13.59;100.00
41254;BME280;26987;59.928;30.306;2023-09-12T02:18:16;101334.63;;;13.59;100.00
41254;BME280;26987;59.928;30.306;2023-09-12T02:20:46;101320.13;;;13.46;100.00
41254;BME280;26987;59.928;30.306;2023-09-12T02:23:15;101328.00;;;13.55;100.00
41254;BME280;26987;59.928;30.306;2023-09-12T02:25:43;101334.22;;;13.55;100.00
41254;BME280;26987;59.928;30.306;2023-09-12T02:28:11;101332.75;;;13.53;100.00
41254;BME280;26987;59.928;30.306;2023-09-12T02:30:39;101312.06;;;13.46;100.00
41254;BME280;26987;59.928;30.306;2023-09-12T02:33:07;101324.09;;;13.51;100.00
41254;BME280;26987;59.928;30.306;2023-09-12T02:35:35;101324.47;;;13.47;100.00
41254;BME280;26987;59.928;30.306;2023-09-12T02:38:04;101322.59;;;13.48;100.00
41254;BME280;26987;59.928;30.306;2023-09-12T02:40:32;101185.53;;;12.60;100.00
41254;BME280;26987;59.928;30.306;2023-09-12T02:43:00;101304.81;;;13.33;100.00
41254;BME280;26987;59.928;30.306;2023-09-12T02:45:29;101305.25;;;13.30;100.00
41254;BME280;26987;59.928;30.306;2023-09-12T02:47:57;101317.25;;;13.34;100.00
41254;BME280;26987;59.928;30.306;2023-09-12T02:50:25;101319.09;;;13.41;100.00
41254;BME280;26987;59.928;30.306;2023-09-12T02:52:53;101323.06;;;13.38;100.00
41254;BME280;26987;59.928;30.306;2023-09-12T02:55:22;101313.31;;;13.37;100.00
41254;BME280;26987;59.928;30.306;2023-09-12T02:57:50;101320.34;;;13.38;100.00
41254;BME280;26987;59.928;30.306;2023-09-12T03:00:19;101322.41;;;13.36;100.00
41254;BME280;26987;59.928;30.306;2023-09-12T03:02:47;101311.06;;;13.34;100.00
41254;BME280;26987;59.928;30.306;2023-09-12T03:05:15;101316.44;;;13.34;100.00
41254;BME280;26987;59.928;30.306;2023-09-12T03:07:43;101320.19;;;13.33;100.00
41254;BME280;26987;59.928;30.306;2023-09-12T03:10:11;101286.47;;;13.10;100.00
41254;BME280;26987;59.928;30.306;2023-09-12T03:12:40;101321.19;;;13.32;100.00
41254;BME280;26987;59.928;30.306;2023-09-12T03:15:10;101318.13;;;13.28;100.00
41254;BME280;26987;59.928;30.306;2023-09-12T03:17:38;101323.50;;;13.28;100.00
41254;BME280;26987;59.928;30.306;2023-09-12T03:20:06;101319.56;;;13.24;100.00
41254;BME280;26987;59.928;30.306;2023-09-12T03:22:35;101313.97;;;13.25;100.00
41254;BME280;26987;59.928;30.306;2023-09-12T03:25:04;101311.47;;;13.24;100.00
41254;BME280;26987;59.928;30.306;2023-09-12T03:27:33;101316.66;;;13.25;100.00
41254;BME280;26987;59.928;30.306;2023-09-12T03:30:03;101316.84;;;13.31;100.00
41254;BME280;26987;59.928;30.306;2023-09-12T03:32:31;101318.72;;;13.30;100.00
41254;BME280;26987;59.928;30.306;2023-09-12T03:34:59;101319.13;;;13.34;100.00
41254;BME280;26987;59.928;30.306;2023-09-12T03:37:27;101319.31;;;13.39;100.00
41254;BME280;26987;59.928;30.306;2023-09-12T03:39:55;101315.78;;;13.52;100.00
41254;BME280;26987;59.928;30.306;2023-09-12T03:42:23;101311.16;;;13.73;100.00
41254;BME280;26987;59.928;30.306;2023-09-12T03:44:50;101315.56;;;13.99;100.00
41254;BME280;26987;59.928;30.306;2023-09-12T03:47:20;101317.34;;;14.19;100.00
41254;BME280;26987;59.928;30.306;2023-09-12T03:49:48;101314.97;;;14.30;100.00
41254;BME280;26987;59.928;30.306;2023-09-12T03:52:15;101321.25;;;14.56;100.00
41254;BME280;26987;59.928;30.306;2023-09-12T03:54:43;101318.66;;;14.68;100.00
41254;BME280;26987;59.928;30.306;2023-09-12T03:57:11;101325.47;;;14.70;100.00
41254;BME280;26987;59.928;30.306;2023-09-12T03:59:40;101325.25;;;14.79;100.00
41254;BME280;26987;59.928;30.306;2023-09-12T04:02:08;101319.28;;;14.95;100.00
41254;BME280;26987;59.928;30.306;2023-09-12T04:04:38;101327.34;;;15.21;100.00
41254;BME280;26987;59.928;30.306;2023-09-12T04:07:06;101325.94;;;15.56;100.00
41254;BME280;26987;59.928;30.306;2023-09-12T04:09:34;101329.34;;;16.00;100.00
41254;BME280;26987;59.928;30.306;2023-09-12T04:12:03;101333.72;;;16.44;100.00
41254;BME280;26987;59.928;30.306;2023-09-12T04:14:31;101330.47;;;16.90;100.00
41254;BME280;26987;59.928;30.306;2023-09-12T04:16:58;101340.97;;;17.34;97.97
41254;BME280;26987;59.928;30.306;2023-09-12T04:19:27;101328.97;;;17.71;94.56
41254;BME280;26987;59.928;30.306;2023-09-12T04:21:56;101333.75;;;17.93;93.18
41254;BME280;26987;59.928;30.306;2023-09-12T04:24:24;101334.44;;;18.47;90.26
41254;BME280;26987;59.928;30.306;2023-09-12T04:26:53;101330.97;;;18.86;87.58
41254;BME280;26987;59.928;30.306;2023-09-12T04:29:21;101331.97;;;19.14;86.21
41254;BME280;26987;59.928;30.306;2023-09-12T04:31:48;101331.88;;;19.48;84.23
41254;BME280;26987;59.928;30.306;2023-09-12T04:34:19;101330.06;;;19.82;82.15
41254;BME280;26987;59.928;30.306;2023-09-12T04:36:47;101326.97;;;20.23;79.82
41254;BME280;26987;59.928;30.306;2023-09-12T04:39:16;101325.94;;;20.62;78.17
41254;BME280;26987;59.928;30.306;2023-09-12T04:41:44;101321.00;;;20.97;76.09
41254;BME280;26987;59.928;30.306;2023-09-12T04:44:12;101313.31;;;21.37;74.28
41254;BME280;26987;59.928;30.306;2023-09-12T04:46:40;101323.75;;;21.55;72.98
41254;BME280;26987;59.928;30.306;2023-09-12T04:49:11;101319.53;;;22.07;71.41
41254;BME280;26987;59.928;30.306;2023-09-12T04:51:39;101325.56;;;22.29;69.69
41254;BME280;26987;59.928;30.306;2023-09-12T04:54:06;101316.00;;;22.37;68.79
41254;BME280;26987;59.928;30.306;2023-09-12T04:56:36;101322.84;;;22.14;70.08
41254;BME280;26987;59.928;30.306;2023-09-12T04:59:04;101319.84;;;22.36;68.71
41254;BME280;26987;59.928;30.306;2023-09-12T05:01:33;101310.81;;;22.56;67.09
41254;BME280;26987;59.928;30.306;2023-09-12T05:04:01;101313.00;;;22.54;67.34
41254;BME280;26987;59.928;30.306;2023-09-12T05:06:30;101317.38;;;22.82;66.67
41254;BME280;26987;59.928;30.306;2023-09-12T05:08:58;101320.06;;;23.02;65.32
41254;BME280;26987;59.928;30.306;2023-09-12T05:11:26;101313.22;;;23.05;65.05
41254;BME280;26987;59.928;30.306;2023-09-12T05:13:55;101308.34;;;22.97;65.78
41254;BME280;26987;59.928;30.306;2023-09-12T05:16:23;101312.59;;;23.29;63.35
41254;BME280;26987;59.928;30.306;2023-09-12T05:18:51;101315.47;;;23.64;61.83
41254;BME280;26987;59.928;30.306;2023-09-12T05:21:20;101314.69;;;24.03;60.46
41254;BME280;26987;59.928;30.306;2023-09-12T05:23:48;101304.09;;;24.31;59.05
41254;BME280;26987;59.928;30.306;2023-09-12T05:26:16;101318.13;;;24.54;58.05
41254;BME280;26987;59.928;30.306;2023-09-12T05:28:44;101316.69;;;24.92;56.67
41254;BME280;26987;59.928;30.306;2023-09-12T05:31:13;101326.47;;;25.47;55.48
41254;BME280;26987;59.928;30.306;2023-09-12T05:33:41;101318.22;;;25.91;53.37
41254;BME280;26987;59.928;30.306;2023-09-12T05:36:09;101306.56;;;25.61;53.06
41254;BME280;26987;59.928;30.306;2023-09-12T05:38:37;101321.69;;;25.97;52.25
41254;BME280;26987;59.928;30.306;2023-09-12T05:41:05;101322.59;;;26.11;51.96
41254;BME280;26987;59.928;30.306;2023-09-12T05:43:34;101312.56;;;26.01;51.98
41254;BME280;26987;59.928;30.306;2023-09-12T05:46:02;101316.19;;;26.16;51.94
41254;BME280;26987;59.928;30.306;2023-09-12T05:48:31;101326.19;;;26.26;51.33
41254;BME280;26987;59.928;30.306;2023-09-12T05:50:59;101306.81;;;26.17;51.24
41254;BME280;26987;59.928;30.306;2023-09-12T05:53:27;101311.31;;;26.27;50.61
41254;BME280;26987;59.928;30.306;2023-09-12T05:55:55;101323.72;;;26.43;50.35
41254;BME280;26987;59.928;30.306;2023-09-12T05:58:23;101317.84;;;26.50;49.97
41254;BME280;26987;59.928;30.306;2023-09-12T06:00:52;101308.59;;;26.46;49.81
41254;BME280;26987;59.928;30.306;2023-09-12T06:03:20;101311.75;;;26.53;49.78
41254;BME280;26987;59.928;30.306;2023-09-12T06:05:50;101312.94;;;26.47;50.42
41254;BME280;26987;59.928;30.306;2023-09-12T06:08:17;101310.44;;;26.65;49.07
41254;BME280;26987;59.928;30.306;2023-09-12T06:10:45;101307.41;;;26.80;48.86
41254;BME280;26987;59.928;30.306;2023-09-12T06:13:15;101296.19;;;26.63;49.40
41254;BME280;26987;59.928;30.306;2023-09-12T06:15:42;101310.94;;;26.81;49.10
41254;BME280;26987;59.928;30.306;2023-09-12T06:18:10;101303.75;;;26.85;48.94
41254;BME280;26987;59.928;30.306;2023-09-12T06:20:38;101309.44;;;26.75;49.51
41254;BME280;26987;59.928;30.306;2023-09-12T06:23:08;101301.38;;;26.78;50.12
41254;BME280;26987;59.928;30.306;2023-09-12T06:25:36;101298.69;;;26.45;50.49
41254;BME280;26987;59.928;30.306;2023-09-12T06:28:08;101303.38;;;26.25;51.39
41254;BME280;26987;59.928;30.306;2023-09-12T06:30:36;101287.94;;;25.96;52.00
41254;BME280;26987;59.928;30.306;2023-09-12T06:33:04;101291.59;;;25.72;53.55
41254;BME280;26987;59.928;30.306;2023-09-12T06:35:32;101295.84;;;25.40;54.36
41254;BME280;26987;59.928;30.306;2023-09-12T06:38:00;101297.09;;;25.28;55.13
41254;BME280;26987;59.928;30.306;2023-09-12T06:40:29;101303.56;;;25.38;54.90
41254;BME280;26987;59.928;30.306;2023-09-12T06:42:57;101291.06;;;24.77;56.22
41254;BME280;26987;59.928;30.306;2023-09-12T06:45:25;101285.38;;;24.39;58.33
41254;BME280;26987;59.928;30.306;2023-09-12T06:47:53;101294.63;;;24.13;59.80
41254;BME280;26987;59.928;30.306;2023-09-12T06:50:20;101295.81;;;24.02;60.00
41254;BME280;26987;59.928;30.306;2023-09-12T06:52:48;101296.78;;;23.76;60.62
41254;BME280;26987;59.928;30.306;2023-09-12T06:55:16;101291.78;;;23.38;62.64
41254;BME280;26987;59.928;30.306;2023-09-12T06:57:45;101292.63;;;23.28;63.17
41254;BME280;26987;59.928;30.306;2023-09-12T07:00:14;101283.19;;;23.00;64.07
41254;BME280;26987;59.928;30.306;2023-09-12T07:02:43;101298.22;;;22.87;65.34
41254;BME280;26987;59.928;30.306;2023-09-12T07:05:10;101291.97;;;22.81;65.24
41254;BME280;26987;59.928;30.306;2023-09-12T07:07:38;101285.97;;;22.58;66.58
41254;BME280;26987;59.928;30.306;2023-09-12T07:10:07;101290.06;;;22.50;67.61
41254;BME280;26987;59.928;30.306;2023-09-12T07:12:35;101289.50;;;22.53;67.90
41254;BME280;26987;59.928;30.306;2023-09-12T07:15:05;101284.34;;;22.47;68.25
41254;BME280;26987;59.928;30.306;2023-09-12T07:17:33;101276.94;;;22.37;68.44
41254;BME280;26987;59.928;30.306;2023-09-12T07:20:01;101292.81;;;22.45;68.17
41254;BME280;26987;59.928;30.306;2023-09-12T07:22:29;101295.00;;;22.27;69.03
41254;BME280;26987;59.928;30.306;2023-09-12T07:24:59;101300.16;;;22.18;68.98
41254;BME280;26987;59.928;30.306;2023-09-12T07:27:28;101257.50;;;21.71;69.65
41254;BME280;26987;59.928;30.306;2023-09-12T07:29:56;101289.75;;;21.84;70.56
41254;BME280;26987;59.928;30.306;2023-09-12T07:34:53;101280.69;;;21.68;71.88
41254;BME280;26987;59.928;30.306;2023-09-12T07:37:21;101287.25;;;21.72;71.62
41254;BME280;26987;59.928;30.306;2023-09-12T07:39:48;101290.53;;;21.74;71.56
41254;BME280;26987;59.928;30.306;2023-09-12T07:42:16;101279.63;;;21.79;72.17
41254;BME280;26987;59.928;30.306;2023-09-12T07:44:48;101292.78;;;21.88;71.50
41254;BME280;26987;59.928;30.306;2023-09-12T07:47:15;101292.22;;;21.91;71.29
41254;BME280;26987;59.928;30.306;2023-09-12T07:49:45;101299.88;;;21.99;72.42
41254;BME280;26987;59.928;30.306;2023-09-12T07:52:12;101295.78;;;21.97;71.28
41254;BME280;26987;59.928;30.306;2023-09-12T07:54:40;101295.25;;;22.00;71.95
41254;BME280;26987;59.928;30.306;2023-09-12T07:57:08;101308.06;;;21.99;71.74
41254;BME280;26987;59.928;30.306;2023-09-12T07:59:36;101305.34;;;21.99;71.04
41254;BME280;26987;59.928;30.306;2023-09-12T08:02:04;101300.97;;;21.98;71.67
41254;BME280;26987;59.928;30.306;2023-09-12T08:04:32;101302.91;;;22.03;71.34
41254;BME280;26987;59.928;30.306;2023-09-12T08:07:01;101304.28;;;22.11;71.66
41254;BME280;26987;59.928;30.306;2023-09-12T08:09:50;101290.59;;;22.37;70.84
41254;BME280;26987;59.928;30.306;2023-09-12T08:12:18;101289.00;;;22.30;70.61
41254;BME280;26987;59.928;30.306;2023-09-12T08:14:46;101280.50;;;22.27;70.55
41254;BME280;26987;59.928;30.306;2023-09-12T08:17:14;101271.50;;;22.32;70.16
41254;BME280;26987;59.928;30.306;2023-09-12T08:19:42;101295.78;;;22.49;69.59
41254;BME280;26987;59.928;30.306;2023-09-12T08:22:12;101294.72;;;22.60;70.07
41254;BME280;26987;59.928;30.306;2023-09-12T08:24:40;101282.69;;;22.66;69.81
41254;BME280;26987;59.928;30.306;2023-09-12T08:27:08;101281.03;;;22.76;68.62
41254;BME280;26987;59.928;30.306;2023-09-12T08:29:36;101280.16;;;22.91;69.04
41254;BME280;26987;59.928;30.306;2023-09-12T08:32:04;101281.25;;;23.05;68.57
41254;BME280;26987;59.928;30.306;2023-09-12T08:34:32;101282.00;;;23.22;67.93
41254;BME280;26987;59.928;30.306;2023-09-12T08:37:00;101268.59;;;23.25;66.72
41254;BME280;26987;59.928;30.306;2023-09-12T08:39:40;101270.97;;;23.42;67.41
41254;BME280;26987;59.928;30.306;2023-09-12T08:42:12;101272.94;;;23.37;67.26
41254;BME280;26987;59.928;30.306;2023-09-12T08:44:40;101268.25;;;23.32;66.69
41254;BME280;26987;59.928;30.306;2023-09-12T08:47:09;101236.59;;;23.21;66.28
41254;BME280;26987;59.928;30.306;2023-09-12T08:49:38;101262.78;;;23.42;66.36
41254;BME280;26987;59.928;30.306;2023-09-12T08:52:08;101270.13;;;23.52;66.58
41254;BME280;26987;59.928;30.306;2023-09-12T08:54:37;101274.97;;;23.66;65.69
41254;BME280;26987;59.928;30.306;2023-09-12T08:57:06;101254.66;;;23.72;65.10
41254;BME280;26987;59.928;30.306;2023-09-12T08:59:34;101231.25;;;23.55;65.05
41254;BME280;26987;59.928;30.306;2023-09-12T09:02:03;101269.44;;;23.76;65.14
41254;BME280;26987;59.928;30.306;2023-09-12T09:04:34;101261.50;;;23.75;65.13
41254;BME280;26987;59.928;30.306;2023-09-12T09:07:03;101266.69;;;23.76;64.75
41254;BME280;26987;59.928;30.306;2023-09-12T09:09:32;101255.25;;;23.64;65.93
41254;BME280;26987;59.928;30.306;2023-09-12T09:12:01;101258.63;;;23.50;65.28
41254;BME280;26987;59.928;30.306;2023-09-12T09:14:30;101263.81;;;23.52;65.99
41254;BME280;26987;59.928;30.306;2023-09-12T09:16:58;101247.03;;;23.69;65.58
41254;BME280;26987;59.928;30.306;2023-09-12T09:19:40;101267.44;;;24.22;64.53
41254;BME280;26987;59.928;30.306;2023-09-12T09:22:09;101263.28;;;24.30;63.75
41254;BME280;26987;59.928;30.306;2023-09-12T09:24:37;101263.56;;;24.28;63.52
41254;BME280;26987;59.928;30.306;2023-09-12T09:27:06;101263.06;;;24.26;63.54
41254;BME280;26987;59.928;30.306;2023-09-12T09:29:45;101261.03;;;24.37;63.52
41254;BME280;26987;59.928;30.306;2023-09-12T09:32:17;101257.59;;;24.21;62.99
41254;BME280;26987;59.928;30.306;2023-09-12T09:34:48;101251.91;;;24.12;62.76
41254;BME280;26987;59.928;30.306;2023-09-12T09:37:16;101262.59;;;24.09;63.39
41254;BME280;26987;59.928;30.306;2023-09-12T09:39:47;101265.59;;;24.12;63.29
41254;BME280;26987;59.928;30.306;2023-09-12T09:42:20;101268.59;;;24.16;63.41
41254;BME280;26987;59.928;30.306;2023-09-12T09:44:48;101265.53;;;24.23;62.92
41254;BME280;26987;59.928;30.306;2023-09-12T09:47:18;101268.47;;;24.31;63.37
41254;BME280;26987;59.928;30.306;2023-09-12T09:49:46;101261.94;;;24.27;62.91
41254;BME280;26987;59.928;30.306;2023-09-12T09:52:14;101261.41;;;24.25;62.57
41254;BME280;26987;59.928;30.306;2023-09-12T09:54:43;101250.25;;;24.16;62.64
41254;BME280;26987;59.928;30.306;2023-09-12T09:57:12;101256.84;;;24.15;63.14
41254;BME280;26987;59.928;30.306;2023-09-12T09:59:42;101250.06;;;24.02;63.33
41254;BME280;26987;59.928;30.306;2023-09-12T10:02:16;101221.75;;;23.83;63.28
41254;BME280;26987;59.928;30.306;2023-09-12T10:04:48;101253.03;;;24.06;63.11
41254;BME280;26987;59.928;30.306;2023-09-12T10:07:17;101242.44;;;23.99;63.50
41254;BME280;26987;59.928;30.306;2023-09-12T10:09:47;101252.78;;;24.02;63.92
41254;BME280;26987;59.928;30.306;2023-09-12T10:12:15;101252.50;;;24.04;62.96
41254;BME280;26987;59.928;30.306;2023-09-12T10:14:45;101258.53;;;24.06;63.15
41254;BME280;26987;59.928;30.306;2023-09-12T10:17:15;101245.66;;;24.06;63.36
41254;BME280;26987;59.928;30.306;2023-09-12T10:19:53;101248.41;;;24.06;62.91
41254;BME280;26987;59.928;30.306;2023-09-12T10:22:25;101265.28;;;24.19;63.24
41254;BME280;26987;59.928;30.306;2023-09-12T10:24:56;101242.59;;;24.13;62.90
41254;BME280;26987;59.928;30.306;2023-09-12T10:27:25;101260.59;;;24.25;62.28
41254;BME280;26987;59.928;30.306;2023-09-12T10:29:55;101255.41;;;24.23;62.02
41254;BME280;26987;59.928;30.306;2023-09-12T10:32:28;101265.81;;;24.21;62.17
41254;BME280;26987;59.928;30.306;2023-09-12T10:34:58;101251.59;;;24.19;61.83
41254;BME280;26987;59.928;30.306;2023-09-12T10:37:29;101251.38;;;24.15;62.00
41254;BME280;26987;59.928;30.306;2023-09-12T10:40:01;101260.31;;;24.26;61.97
41254;BME280;26987;59.928;30.306;2023-09-12T10:42:32;101257.50;;;24.31;61.29
41254;BME280;26987;59.928;30.306;2023-09-12T10:45:03;101256.38;;;24.38;61.37
41254;BME280;26987;59.928;30.306;2023-09-12T10:47:34;101253.91;;;24.36;60.74
41254;BME280;26987;59.928;30.306;2023-09-12T10:50:03;101253.38;;;24.34;60.97
41254;BME280;26987;59.928;30.306;2023-09-12T10:52:31;101253.84;;;24.41;60.37
41254;BME280;26987;59.928;30.306;2023-09-12T10:55:04;101250.13;;;24.32;60.28
41254;BME280;26987;59.928;30.306;2023-09-12T10:57:32;101259.22;;;24.22;60.37
41254;BME280;26987;59.928;30.306;2023-09-12T11:00:13;101259.72;;;24.29;60.58
41254;BME280;26987;59.928;30.306;2023-09-12T11:02:41;101254.34;;;24.19;60.35
41254;BME280;26987;59.928;30.306;2023-09-12T11:05:37;101259.03;;;24.43;60.12
41254;BME280;26987;59.928;30.306;2023-09-12T11:08:05;101261.59;;;24.34;60.15
41254;BME280;26987;59.928;30.306;2023-09-12T11:10:33;101262.16;;;24.31;60.66
41254;BME280;26987;59.928;30.306;2023-09-12T11:13:01;101252.56;;;24.34;60.56
41254;BME280;26987;59.928;30.306;2023-09-12T11:15:31;101251.09;;;24.41;60.17
41254;BME280;26987;59.928;30.306;2023-09-12T11:18:02;101247.78;;;24.44;60.48
41254;BME280;26987;59.928;30.306;2023-09-12T11:20:52;101258.84;;;24.64;59.81
41254;BME280;26987;59.928;30.306;2023-09-12T11:23:26;101252.09;;;24.56;59.16
41254;BME280;26987;59.928;30.306;2023-09-12T11:26:03;101247.22;;;24.48;60.27
41254;BME280;26987;59.928;30.306;2023-09-12T11:28:33;101244.09;;;24.30;60.31
41254;BME280;26987;59.928;30.306;2023-09-12T11:31:02;101249.28;;;24.31;60.70
41254;BME280;26987;59.928;30.306;2023-09-12T11:33:32;101242.13;;;24.36;60.24
41254;BME280;26987;59.928;30.306;2023-09-12T11:36:01;101248.19;;;24.33;60.43
41254;BME280;26987;59.928;30.306;2023-09-12T11:38:31;101238.97;;;24.23;60.20
41254;BME280;26987;59.928;30.306;2023-09-12T11:41:00;101241.91;;;24.32;60.37
41254;BME280;26987;59.928;30.306;2023-09-12T11:43:28;101243.00;;;24.31;60.19
41254;BME280;26987;59.928;30.306;2023-09-12T11:45:57;101230.13;;;24.31;60.45
41254;BME280;26987;59.928;30.306;2023-09-12T11:48:28;101236.19;;;24.28;60.80
41254;BME280;26987;59.928;30.306;2023-09-12T11:50:57;101224.75;;;24.21;61.00
41254;BME280;26987;59.928;30.306;2023-09-12T11:53:27;101235.16;;;24.19;60.89
41254;BME280;26987;59.928;30.306;2023-09-12T11:55:58;101226.44;;;24.17;60.88
41254;BME280;26987;59.928;30.306;2023-09-12T11:58:27;101197.03;;;23.93;60.16
41254;BME280;26987;59.928;30.306;2023-09-12T12:00:56;101214.03;;;24.25;60.57
41254;BME280;26987;59.928;30.306;2023-09-12T12:03:26;101219.06;;;24.42;59.72
41254;BME280;26987;59.928;30.306;2023-09-12T12:05:55;101206.94;;;24.48;59.04
41254;BME280;26987;59.928;30.306;2023-09-12T12:08:23;101221.09;;;24.55;59.44
41254;BME280;26987;59.928;30.306;2023-09-12T12:10:51;101204.34;;;24.33;59.66
41254;BME280;26987;59.928;30.306;2023-09-12T12:13:20;101216.97;;;24.34;59.53
41254;BME280;26987;59.928;30.306;2023-09-12T12:15:48;101225.97;;;24.34;59.30
41254;BME280;26987;59.928;30.306;2023-09-12T12:18:16;101217.53;;;24.30;59.15
41254;BME280;26987;59.928;30.306;2023-09-12T12:20:45;101225.78;;;24.25;59.71
41254;BME280;26987;59.928;30.306;2023-09-12T12:23:13;101206.72;;;24.15;59.80
41254;BME280;26987;59.928;30.306;2023-09-12T12:25:41;101223.69;;;24.17;60.01
41254;BME280;26987;59.928;30.306;2023-09-12T12:28:09;101219.53;;;24.25;59.73
41254;BME280;26987;59.928;30.306;2023-09-12T12:30:37;101225.41;;;24.37;59.62
41254;BME280;26987;59.928;30.306;2023-09-12T12:33:08;101202.69;;;24.37;59.03
41254;BME280;26987;59.928;30.306;2023-09-12T12:35:36;101216.91;;;24.39;59.16
41254;BME280;26987;59.928;30.306;2023-09-12T12:38:05;101215.09;;;24.29;59.33
41254;BME280;26987;59.928;30.306;2023-09-12T12:40:37;101210.47;;;24.24;59.93
41254;BME280;26987;59.928;30.306;2023-09-12T12:43:16;101211.59;;;24.23;60.39
41254;BME280;26987;59.928;30.306;2023-09-12T12:45:52;101205.84;;;24.19;60.13
41254;BME280;26987;59.928;30.306;2023-09-12T12:48:29;101126.38;;;23.60;60.01